Bosqueville, Texas
Current Conditions -  °F | °C
As of 7:51 AM on Saturday 25 Oct 2014 (Local Time) from KACT Reporting Station
Clear Clear  
Wind Chill: 61°   Ceiling: Unl
Heat Index: 61°   Visibility: 10mi
Dew Point: 58°   Wind: 7mph
Humidity: 90%   Direction: 150°SSE
Pressure: 30.14"   Gusts: NA
Location:  31.618°N, 97.2031°W
Report Text: KACT 251251Z 15006KT 10SM CLR 16/14 A3014 RMK AO2 SLP202 T01610144
Loading
Personal Weather Stations






























Interactive Weather Map
Tropical Storm Tracking
New forecast layout! Learn more

10-Day Weather Forecast

Advertisements
Track Severe Weather on mobile